sensor_id;sensor_type;location;lat;lon;timestamp;pressure;altitude;pressure_sealevel;temperature;humidity
6952;BME280;3515;50.138;8.502;2022-08-01T00:01:13;101670;;;22.6;63.4
6952;BME280;3515;50.138;8.502;2022-08-01T00:03:39;101670;;;22.6;63.4
6952;BME280;3515;50.138;8.502;2022-08-01T00:06:04;101670;;;22.5;63.9
6952;BME280;3515;50.138;8.502;2022-08-01T00:08:29;101670;;;22.5;63.9
6952;BME280;3515;50.138;8.502;2022-08-01T00:10:55;101650;;;22.5;63.9
6952;BME280;3515;50.138;8.502;2022-08-01T00:13:20;101660;;;22.5;63.9
6952;BME280;3515;50.138;8.502;2022-08-01T00:15:45;101680;;;22.4;63.9
6952;BME280;3515;50.138;8.502;2022-08-01T00:18:10;101680;;;22.4;63.9
6952;BME280;3515;50.138;8.502;2022-08-01T00:20:36;101690;;;22.4;64.4
6952;BME280;3515;50.138;8.502;2022-08-01T00:23:02;101670;;;22.3;64.4
6952;BME280;3515;50.138;8.502;2022-08-01T00:25:26;101670;;;22.2;64.9
6952;BME280;3515;50.138;8.502;2022-08-01T00:27:52;101650;;;22.2;64.9
6952;BME280;3515;50.138;8.502;2022-08-01T00:30:17;101660;;;22.1;64.9
6952;BME280;3515;50.138;8.502;2022-08-01T00:32:42;101690;;;22.1;64.9
6952;BME280;3515;50.138;8.502;2022-08-01T00:35:08;101660;;;22.0;65.4
6952;BME280;3515;50.138;8.502;2022-08-01T00:37:33;101640;;;21.9;65.9
6952;BME280;3515;50.138;8.502;2022-08-01T00:39:58;101660;;;21.9;65.9
6952;BME280;3515;50.138;8.502;2022-08-01T00:42:23;101650;;;21.9;65.9
6952;BME280;3515;50.138;8.502;2022-08-01T00:44:48;101680;;;21.9;65.9
6952;BME280;3515;50.138;8.502;2022-08-01T00:47:14;101670;;;21.9;65.9
6952;BME280;3515;50.138;8.502;2022-08-01T00:49:39;101690;;;21.8;66.4
6952;BME280;3515;50.138;8.502;2022-08-01T00:52:04;101670;;;21.8;66.9
6952;BME280;3515;50.138;8.502;2022-08-01T00:54:30;101670;;;21.7;66.9
6952;BME280;3515;50.138;8.502;2022-08-01T00:56:55;101660;;;21.7;66.9
6952;BME280;3515;50.138;8.502;2022-08-01T00:59:20;101670;;;21.6;67.4
6952;BME280;3515;50.138;8.502;2022-08-01T01:01:45;101660;;;21.6;67.4
6952;BME280;3515;50.138;8.502;2022-08-01T01:04:11;101670;;;21.6;67.4
6952;BME280;3515;50.138;8.502;2022-08-01T01:06:41;101690;;;21.6;67.4
6952;BME280;3515;50.138;8.502;2022-08-01T01:09:10;101670;;;21.4;67.9
6952;BME280;3515;50.138;8.502;2022-08-01T01:11:28;101690;;;21.4;67.9
6952;BME280;3515;50.138;8.502;2022-08-01T01:13:52;101670;;;21.5;67.9
6952;BME280;3515;50.138;8.502;2022-08-01T01:16:17;101690;;;21.4;67.9
6952;BME280;3515;50.138;8.502;2022-08-01T01:18:43;101700;;;21.4;68.4
6952;BME280;3515;50.138;8.502;2022-08-01T01:21:10;101680;;;21.4;68.4
6952;BME280;3515;50.138;8.502;2022-08-01T01:23:36;101660;;;21.4;68.4
6952;BME280;3515;50.138;8.502;2022-08-01T01:26:04;101700;;;21.3;68.9
6952;BME280;3515;50.138;8.502;2022-08-01T01:28:27;101690;;;21.3;68.9
6952;BME280;3515;50.138;8.502;2022-08-01T01:30:50;101690;;;21.4;69.4
6952;BME280;3515;50.138;8.502;2022-08-01T01:33:14;101680;;;21.3;69.4
6952;BME280;3515;50.138;8.502;2022-08-01T01:35:41;101690;;;21.2;69.4
6952;BME280;3515;50.138;8.502;2022-08-01T01:38:06;101700;;;21.2;69.4
6952;BME280;3515;50.138;8.502;2022-08-01T01:40:30;101700;;;21.2;69.4
6952;BME280;3515;50.138;8.502;2022-08-01T01:42:55;101700;;;21.2;69.4
6952;BME280;3515;50.138;8.502;2022-08-01T01:45:20;101710;;;21.2;69.9
6952;BME280;3515;50.138;8.502;2022-08-01T01:47:45;101690;;;21.1;69.9
6952;BME280;3515;50.138;8.502;2022-08-01T01:50:11;101690;;;21.1;69.9
6952;BME280;3515;50.138;8.502;2022-08-01T01:52:36;101690;;;21.0;69.9
6952;BME280;3515;50.138;8.502;2022-08-01T01:55:01;101690;;;21.0;70.4
6952;BME280;3515;50.138;8.502;2022-08-01T01:57:26;101700;;;21.0;70.4
6952;BME280;3515;50.138;8.502;2022-08-01T01:59:52;101700;;;20.9;70.9
6952;BME280;3515;50.138;8.502;2022-08-01T02:02:17;101700;;;20.9;70.9
6952;BME280;3515;50.138;8.502;2022-08-01T02:04:43;101690;;;20.9;70.9
6952;BME280;3515;50.138;8.502;2022-08-01T02:07:08;101730;;;20.8;70.9
6952;BME280;3515;50.138;8.502;2022-08-01T02:09:33;101710;;;20.8;70.9
6952;BME280;3515;50.138;8.502;2022-08-01T02:11:58;101720;;;20.8;70.9
6952;BME280;3515;50.138;8.502;2022-08-01T02:14:23;101710;;;20.8;70.9
6952;BME280;3515;50.138;8.502;2022-08-01T02:16:49;101690;;;20.8;70.9
6952;BME280;3515;50.138;8.502;2022-08-01T02:19:14;101720;;;20.8;71.4
6952;BME280;3515;50.138;8.502;2022-08-01T02:21:40;101730;;;20.8;71.4
6952;BME280;3515;50.138;8.502;2022-08-01T02:24:07;101730;;;20.8;71.4
6952;BME280;3515;50.138;8.502;2022-08-01T02:26:30;101690;;;20.8;71.4
6952;BME280;3515;50.138;8.502;2022-08-01T02:28:56;101710;;;20.8;71.4
6952;BME280;3515;50.138;8.502;2022-08-01T02:31:21;101750;;;20.6;71.4
6952;BME280;3515;50.138;8.502;2022-08-01T02:33:48;101720;;;20.6;71.9
6952;BME280;3515;50.138;8.502;2022-08-01T02:36:11;101710;;;20.6;71.4
6952;BME280;3515;50.138;8.502;2022-08-01T02:38:38;101730;;;20.6;71.4
6952;BME280;3515;50.138;8.502;2022-08-01T02:41:03;101710;;;20.6;71.4
6952;BME280;3515;50.138;8.502;2022-08-01T02:43:27;101710;;;20.5;72.4
6952;BME280;3515;50.138;8.502;2022-08-01T02:45:53;101700;;;20.5;72.4
6952;BME280;3515;50.138;8.502;2022-08-01T02:48:18;101710;;;20.5;72.4
6952;BME280;3515;50.138;8.502;2022-08-01T02:50:44;101710;;;20.5;72.4
6952;BME280;3515;50.138;8.502;2022-08-01T02:53:08;101700;;;20.5;72.4
6952;BME280;3515;50.138;8.502;2022-08-01T02:55:33;101720;;;20.5;72.4
6952;BME280;3515;50.138;8.502;2022-08-01T02:57:59;101720;;;20.5;72.4
6952;BME280;3515;50.138;8.502;2022-08-01T03:00:24;101710;;;20.4;72.4
6952;BME280;3515;50.138;8.502;2022-08-01T03:02:49;101700;;;20.4;72.4
6952;BME280;3515;50.138;8.502;2022-08-01T03:05:14;101730;;;20.4;72.4
6952;BME280;3515;50.138;8.502;2022-08-01T03:07:40;101730;;;20.4;72.9
6952;BME280;3515;50.138;8.502;2022-08-01T03:10:05;101710;;;20.3;72.9
6952;BME280;3515;50.138;8.502;2022-08-01T03:12:36;101720;;;20.2;73.4
6952;BME280;3515;50.138;8.502;2022-08-01T03:15:01;101720;;;20.1;73.4
6952;BME280;3515;50.138;8.502;2022-08-01T03:17:27;101700;;;20.1;73.9
6952;BME280;3515;50.138;8.502;2022-08-01T03:19:51;101700;;;20.0;73.9
6952;BME280;3515;50.138;8.502;2022-08-01T03:22:16;101710;;;19.9;74.4
6952;BME280;3515;50.138;8.502;2022-08-01T03:24:42;101730;;;19.9;74.4
6952;BME280;3515;50.138;8.502;2022-08-01T03:27:07;101710;;;19.9;74.4
6952;BME280;3515;50.138;8.502;2022-08-01T03:29:33;101720;;;19.8;74.9
6952;BME280;3515;50.138;8.502;2022-08-01T03:31:58;101740;;;19.8;74.9
6952;BME280;3515;50.138;8.502;2022-08-01T03:34:23;101730;;;19.8;74.9
6952;BME280;3515;50.138;8.502;2022-08-01T03:36:49;101710;;;19.7;74.9
6952;BME280;3515;50.138;8.502;2022-08-01T03:39:14;101720;;;19.6;74.9
6952;BME280;3515;50.138;8.502;2022-08-01T03:41:40;101730;;;19.6;74.9
6952;BME280;3515;50.138;8.502;2022-08-01T03:44:05;101740;;;19.6;74.9
6952;BME280;3515;50.138;8.502;2022-08-01T03:46:30;101730;;;19.6;74.9
6952;BME280;3515;50.138;8.502;2022-08-01T03:48:55;101720;;;19.6;74.9
6952;BME280;3515;50.138;8.502;2022-08-01T03:51:20;101720;;;19.5;74.9
6952;BME280;3515;50.138;8.502;2022-08-01T03:53:45;101740;;;19.5;75.4
6952;BME280;3515;50.138;8.502;2022-08-01T03:56:10;101730;;;19.4;75.4
6952;BME280;3515;50.138;8.502;2022-08-01T03:58:36;101730;;;19.4;75.4
6952;BME280;3515;50.138;8.502;2022-08-01T04:01:01;101730;;;19.4;75.4
6952;BME280;3515;50.138;8.502;2022-08-01T04:03:26;101720;;;19.3;76.4
6952;BME280;3515;50.138;8.502;2022-08-01T04:05:51;101730;;;19.2;76.4
6952;BME280;3515;50.138;8.502;2022-08-01T04:08:16;101720;;;19.1;76.4
6952;BME280;3515;50.138;8.502;2022-08-01T04:10:42;101730;;;19.1;76.8
6952;BME280;3515;50.138;8.502;2022-08-01T04:13:07;101740;;;19.1;76.8
6952;BME280;3515;50.138;8.502;2022-08-01T04:15:32;101730;;;19.1;76.8
6952;BME280;3515;50.138;8.502;2022-08-01T04:17:58;101740;;;19.1;76.8
6952;BME280;3515;50.138;8.502;2022-08-01T04:20:23;101710;;;19.1;76.8
6952;BME280;3515;50.138;8.502;2022-08-01T04:22:48;101740;;;19.1;76.8
6952;BME280;3515;50.138;8.502;2022-08-01T04:25:15;101730;;;19.1;77.4
6952;BME280;3515;50.138;8.502;2022-08-01T04:27:40;101730;;;19.1;77.4
6952;BME280;3515;50.138;8.502;2022-08-01T04:30:05;101720;;;19.0;77.4
6952;BME280;3515;50.138;8.502;2022-08-01T04:32:29;101740;;;19.0;77.4
6952;BME280;3515;50.138;8.502;2022-08-01T04:34:54;101740;;;19.1;77.4
6952;BME280;3515;50.138;8.502;2022-08-01T04:37:20;101740;;;19.1;77.4
6952;BME280;3515;50.138;8.502;2022-08-01T04:39:45;101750;;;19.1;77.4
6952;BME280;3515;50.138;8.502;2022-08-01T04:42:10;101750;;;19.1;77.4
6952;BME280;3515;50.138;8.502;2022-08-01T04:44:35;101760;;;19.2;76.9
6952;BME280;3515;50.138;8.502;2022-08-01T04:47:01;101730;;;19.2;76.9
6952;BME280;3515;50.138;8.502;2022-08-01T04:49:26;101740;;;19.4;77.4
6952;BME280;3515;50.138;8.502;2022-08-01T04:51:52;101780;;;19.4;77.0
6952;BME280;3515;50.138;8.502;2022-08-01T04:54:17;101730;;;19.5;77.0
6952;BME280;3515;50.138;8.502;2022-08-01T04:56:42;101760;;;19.5;77.0
6952;BME280;3515;50.138;8.502;2022-08-01T04:59:07;101760;;;19.6;76.5
6952;BME280;3515;50.138;8.502;2022-08-01T05:01:32;101770;;;19.7;76.5
6952;BME280;3515;50.138;8.502;2022-08-01T05:03:57;101750;;;19.8;76.5
6952;BME280;3515;50.138;8.502;2022-08-01T05:06:23;101760;;;19.9;76.5
6952;BME280;3515;50.138;8.502;2022-08-01T05:08:48;101750;;;19.9;76.0
6952;BME280;3515;50.138;8.502;2022-08-01T05:11:13;101780;;;20.0;76.0
6952;BME280;3515;50.138;8.502;2022-08-01T05:13:39;101770;;;20.1;76.0
6952;BME280;3515;50.138;8.502;2022-08-01T05:16:04;101770;;;20.2;75.5
6952;BME280;3515;50.138;8.502;2022-08-01T05:18:29;101760;;;20.2;75.5
6952;BME280;3515;50.138;8.502;2022-08-01T05:20:55;101750;;;20.4;75.5
6952;BME280;3515;50.138;8.502;2022-08-01T05:23:20;101780;;;20.4;75.5
6952;BME280;3515;50.138;8.502;2022-08-01T05:25:45;101770;;;20.4;75.0
6952;BME280;3515;50.138;8.502;2022-08-01T05:28:10;101760;;;20.6;74.5
6952;BME280;3515;50.138;8.502;2022-08-01T05:30:36;101760;;;20.6;74.5
6952;BME280;3515;50.138;8.502;2022-08-01T05:33:01;101780;;;20.7;74.5
6952;BME280;3515;50.138;8.502;2022-08-01T05:35:26;101780;;;20.8;74.0
6952;BME280;3515;50.138;8.502;2022-08-01T05:37:51;101800;;;20.8;74.5
6952;BME280;3515;50.138;8.502;2022-08-01T05:40:17;101780;;;20.8;74.0
6952;BME280;3515;50.138;8.502;2022-08-01T05:42:42;101790;;;20.8;74.0
6952;BME280;3515;50.138;8.502;2022-08-01T05:45:08;101790;;;20.8;74.0
6952;BME280;3515;50.138;8.502;2022-08-01T05:47:32;101820;;;20.9;74.0
6952;BME280;3515;50.138;8.502;2022-08-01T05:49:58;101770;;;20.9;74.0
6952;BME280;3515;50.138;8.502;2022-08-01T05:52:23;101800;;;20.9;74.0
6952;BME280;3515;50.138;8.502;2022-08-01T05:54:48;101810;;;20.9;74.0
6952;BME280;3515;50.138;8.502;2022-08-01T05:57:13;101790;;;20.9;74.0
6952;BME280;3515;50.138;8.502;2022-08-01T05:59:39;101770;;;21.0;74.0
6952;BME280;3515;50.138;8.502;2022-08-01T06:02:06;101810;;;21.0;74.0
6952;BME280;3515;50.138;8.502;2022-08-01T06:04:31;101790;;;21.1;73.7
6952;BME280;3515;50.138;8.502;2022-08-01T06:06:57;101780;;;21.2;73.5
6952;BME280;3515;50.138;8.502;2022-08-01T06:09:22;101800;;;21.1;73.0
6952;BME280;3515;50.138;8.502;2022-08-01T06:11:47;101800;;;21.2;73.0
6952;BME280;3515;50.138;8.502;2022-08-01T06:14:13;101790;;;21.2;73.0
6952;BME280;3515;50.138;8.502;2022-08-01T06:16:38;101800;;;21.2;73.0
6952;BME280;3515;50.138;8.502;2022-08-01T06:19:03;101810;;;21.3;73.0
6952;BME280;3515;50.138;8.502;2022-08-01T06:21:29;101810;;;21.4;73.0
6952;BME280;3515;50.138;8.502;2022-08-01T06:23:54;101820;;;21.5;73.0
6952;BME280;3515;50.138;8.502;2022-08-01T06:26:19;101830;;;21.4;73.0
6952;BME280;3515;50.138;8.502;2022-08-01T06:28:45;101810;;;21.4;73.0
6952;BME280;3515;50.138;8.502;2022-08-01T06:31:10;101800;;;21.4;73.0
6952;BME280;3515;50.138;8.502;2022-08-01T06:33:35;101820;;;21.5;73.0
6952;BME280;3515;50.138;8.502;2022-08-01T06:36:00;101810;;;21.5;73.0
6952;BME280;3515;50.138;8.502;2022-08-01T06:38:26;101810;;;21.4;73.0
6952;BME280;3515;50.138;8.502;2022-08-01T06:40:51;101840;;;21.5;73.0
6952;BME280;3515;50.138;8.502;2022-08-01T06:43:16;101820;;;21.5;73.5
6952;BME280;3515;50.138;8.502;2022-08-01T06:45:42;101830;;;21.5;73.4
6952;BME280;3515;50.138;8.502;2022-08-01T06:48:07;101810;;;21.5;73.4
6952;BME280;3515;50.138;8.502;2022-08-01T06:50:32;101820;;;21.5;73.4
6952;BME280;3515;50.138;8.502;2022-08-01T06:52:58;101790;;;21.5;73.4
6952;BME280;3515;50.138;8.502;2022-08-01T06:55:23;101830;;;21.6;73.5
6952;BME280;3515;50.138;8.502;2022-08-01T06:57:49;101810;;;21.6;73.0
6952;BME280;3515;50.138;8.502;2022-08-01T07:00:14;101800;;;21.6;73.4
6952;BME280;3515;50.138;8.502;2022-08-01T07:02:39;101820;;;21.7;73.4
6952;BME280;3515;50.138;8.502;2022-08-01T07:05:10;101810;;;21.7;73.0
6952;BME280;3515;50.138;8.502;2022-08-01T07:07:34;101820;;;21.7;73.0
6952;BME280;3515;50.138;8.502;2022-08-01T07:09:59;101830;;;21.6;73.4
6952;BME280;3515;50.138;8.502;2022-08-01T07:12:25;101820;;;21.6;73.4
6952;BME280;3515;50.138;8.502;2022-08-01T07:14:50;101830;;;21.6;73.0
6952;BME280;3515;50.138;8.502;2022-08-01T07:17:15;101810;;;21.7;73.0
6952;BME280;3515;50.138;8.502;2022-08-01T07:19:40;101790;;;21.8;73.0
6952;BME280;3515;50.138;8.502;2022-08-01T07:22:06;101810;;;21.8;73.0
6952;BME280;3515;50.138;8.502;2022-08-01T07:24:31;101800;;;21.9;72.5
6952;BME280;3515;50.138;8.502;2022-08-01T07:26:56;101800;;;22.0;71.5
6952;BME280;3515;50.138;8.502;2022-08-01T07:29:22;101800;;;22.0;72.0
6952;BME280;3515;50.138;8.502;2022-08-01T07:31:47;101790;;;22.1;71.5
6952;BME280;3515;50.138;8.502;2022-08-01T07:34:12;101810;;;22.1;71.5
6952;BME280;3515;50.138;8.502;2022-08-01T07:36:37;101800;;;22.1;71.5
6952;BME280;3515;50.138;8.502;2022-08-01T07:39:03;101790;;;22.1;71.5
6952;BME280;3515;50.138;8.502;2022-08-01T07:41:28;101800;;;22.2;71.5
6952;BME280;3515;50.138;8.502;2022-08-01T07:43:53;101810;;;22.3;70.5
6952;BME280;3515;50.138;8.502;2022-08-01T07:46:18;101810;;;22.4;70.0
6952;BME280;3515;50.138;8.502;2022-08-01T07:48:44;101810;;;22.4;70.0
6952;BME280;3515;50.138;8.502;2022-08-01T07:51:09;101820;;;22.4;70.0
6952;BME280;3515;50.138;8.502;2022-08-01T07:53:34;101820;;;22.5;70.0
6952;BME280;3515;50.138;8.502;2022-08-01T07:56:00;101840;;;22.5;69.5
6952;BME280;3515;50.138;8.502;2022-08-01T07:58:25;101810;;;22.6;69.5
6952;BME280;3515;50.138;8.502;2022-08-01T08:00:50;101800;;;22.7;69.5
6952;BME280;3515;50.138;8.502;2022-08-01T08:03:16;101820;;;22.8;69.5
6952;BME280;3515;50.138;8.502;2022-08-01T08:05:41;101810;;;22.7;69.5
6952;BME280;3515;50.138;8.502;2022-08-01T08:08:07;101820;;;22.6;70.0
6952;BME280;3515;50.138;8.502;2022-08-01T08:10:31;101840;;;22.5;70.5
6952;BME280;3515;50.138;8.502;2022-08-01T08:12:57;101810;;;22.6;70.5
6952;BME280;3515;50.138;8.502;2022-08-01T08:15:22;101830;;;22.6;70.0
6952;BME280;3515;50.138;8.502;2022-08-01T08:17:47;101810;;;22.7;69.5
6952;BME280;3515;50.138;8.502;2022-08-01T08:20:12;101830;;;22.7;69.0
6952;BME280;3515;50.138;8.502;2022-08-01T08:22:38;101840;;;22.8;69.5
6952;BME280;3515;50.138;8.502;2022-08-01T08:25:04;101800;;;22.8;69.5
6952;BME280;3515;50.138;8.502;2022-08-01T08:27:28;101830;;;22.9;68.5
6952;BME280;3515;50.138;8.502;2022-08-01T08:29:53;101830;;;22.9;68.5
6952;BME280;3515;50.138;8.502;2022-08-01T08:32:19;101830;;;22.9;68.5
6952;BME280;3515;50.138;8.502;2022-08-01T08:34:44;101830;;;23.0;68.5
6952;BME280;3515;50.138;8.502;2022-08-01T08:37:09;101820;;;23.1;68.5
6952;BME280;3515;50.138;8.502;2022-08-01T08:39:34;101810;;;23.2;67.5
6952;BME280;3515;50.138;8.502;2022-08-01T08:42:00;101860;;;23.2;67.5
6952;BME280;3515;50.138;8.502;2022-08-01T08:44:25;101830;;;23.0;68.0
6952;BME280;3515;50.138;8.502;2022-08-01T08:46:51;101820;;;23.1;68.0
6952;BME280;3515;50.138;8.502;2022-08-01T08:49:17;101830;;;23.1;68.0
6952;BME280;3515;50.138;8.502;2022-08-01T08:51:41;101830;;;23.2;68.0
6952;BME280;3515;50.138;8.502;2022-08-01T08:54:06;101840;;;23.2;68.0
6952;BME280;3515;50.138;8.502;2022-08-01T08:56:31;101820;;;23.2;67.5
6952;BME280;3515;50.138;8.502;2022-08-01T08:58:57;101830;;;23.2;67.0
6952;BME280;3515;50.138;8.502;2022-08-01T09:01:22;101830;;;23.2;67.0
6952;BME280;3515;50.138;8.502;2022-08-01T09:03:47;101810;;;23.4;66.5
6952;BME280;3515;50.138;8.502;2022-08-01T09:06:13;101820;;;23.4;67.0
6952;BME280;3515;50.138;8.502;2022-08-01T09:08:38;101820;;;23.4;66.5
6952;BME280;3515;50.138;8.502;2022-08-01T09:11:03;101840;;;23.2;66.5
6952;BME280;3515;50.138;8.502;2022-08-01T09:13:29;101820;;;23.4;66.0
6952;BME280;3515;50.138;8.502;2022-08-01T09:15:54;101820;;;23.5;66.0
6952;BME280;3515;50.138;8.502;2022-08-01T09:18:28;101800;;;23.6;65.0
6952;BME280;3515;50.138;8.502;2022-08-01T09:20:44;101820;;;23.6;65.4
6952;BME280;3515;50.138;8.502;2022-08-01T09:28:02;101820;;;24.1;63.5
6952;BME280;3515;50.138;8.502;2022-08-01T09:30:26;101840;;;24.2;63.5
6952;BME280;3515;50.138;8.502;2022-08-01T09:32:53;101800;;;24.3;63.5
6952;BME280;3515;50.138;8.502;2022-08-01T09:35:22;101810;;;24.4;63.5
6952;BME280;3515;50.138;8.502;2022-08-01T09:37:42;101810;;;24.4;63.0
6952;BME280;3515;50.138;8.502;2022-08-01T09:40:08;101810;;;24.6;62.5
6952;BME280;3515;50.138;8.502;2022-08-01T09:42:32;101800;;;24.5;62.0
6952;BME280;3515;50.138;8.502;2022-08-01T09:44:58;101810;;;24.4;63.0
6952;BME280;3515;50.138;8.502;2022-08-01T09:47:23;101790;;;24.4;62.5
6952;BME280;3515;50.138;8.502;2022-08-01T09:49:53;101820;;;24.8;61.5
6952;BME280;3515;50.138;8.502;2022-08-01T09:52:15;101830;;;24.9;60.5
6952;BME280;3515;50.138;8.502;2022-08-01T09:54:40;101800;;;24.6;62.0
6952;BME280;3515;50.138;8.502;2022-08-01T09:57:07;101800;;;24.6;61.5
6952;BME280;3515;50.138;8.502;2022-08-01T09:59:34;101830;;;24.6;60.5
6952;BME280;3515;50.138;8.502;2022-08-01T10:01:56;101820;;;24.8;60.5
6952;BME280;3515;50.138;8.502;2022-08-01T10:04:21;101790;;;24.8;60.0
6952;BME280;3515;50.138;8.502;2022-08-01T10:06:48;101810;;;25.1;59.5
6952;BME280;3515;50.138;8.502;2022-08-01T10:09:13;101810;;;25.2;59.0
6952;BME280;3515;50.138;8.502;2022-08-01T10:11:39;101810;;;25.4;59.0
6952;BME280;3515;50.138;8.502;2022-08-01T10:14:03;101800;;;25.4;59.0
6952;BME280;3515;50.138;8.502;2022-08-01T10:16:28;101800;;;25.4;58.5
6952;BME280;3515;50.138;8.502;2022-08-01T10:18:54;101810;;;25.6;59.0
6952;BME280;3515;50.138;8.502;2022-08-01T10:21:19;101800;;;25.6;57.5
6952;BME280;3515;50.138;8.502;2022-08-01T10:23:44;101800;;;25.5;57.5
6952;BME280;3515;50.138;8.502;2022-08-01T10:26:10;101790;;;25.8;57.0
6952;BME280;3515;50.138;8.502;2022-08-01T10:28:35;101770;;;26.1;56.5
6952;BME280;3515;50.138;8.502;2022-08-01T10:31:00;101790;;;26.1;57.0
6952;BME280;3515;50.138;8.502;2022-08-01T10:33:25;101800;;;26.4;55.5
6952;BME280;3515;50.138;8.502;2022-08-01T10:35:51;101800;;;26.4;56.0
6952;BME280;3515;50.138;8.502;2022-08-01T10:38:16;101790;;;26.2;56.5
6952;BME280;3515;50.138;8.502;2022-08-01T10:40:41;101770;;;26.5;56.0
6952;BME280;3515;50.138;8.502;2022-08-01T10:43:06;101800;;;26.4;56.5
6952;BME280;3515;50.138;8.502;2022-08-01T10:45:31;101760;;;26.2;56.0
6952;BME280;3515;50.138;8.502;2022-08-01T10:47:59;101760;;;26.2;56.5
6952;BME280;3515;50.138;8.502;2022-08-01T10:50:24;101760;;;26.0;57.5
6952;BME280;3515;50.138;8.502;2022-08-01T10:55:19;101770;;;26.1;56.0
6952;BME280;3515;50.138;8.502;2022-08-01T10:57:43;101800;;;25.9;57.0
6952;BME280;3515;50.138;8.502;2022-08-01T11:00:10;101790;;;25.7;57.5
6952;BME280;3515;50.138;8.502;2022-08-01T11:02:34;101770;;;25.9;56.5
6952;BME280;3515;50.138;8.502;2022-08-01T11:05:01;101760;;;26.1;56.5
6952;BME280;3515;50.138;8.502;2022-08-01T11:07:36;101780;;;26.4;55.5
6952;BME280;3515;50.138;8.502;2022-08-01T11:09:58;101760;;;26.0;56.5
6952;BME280;3515;50.138;8.502;2022-08-01T11:12:15;101760;;;26.4;55.5
6952;BME280;3515;50.138;8.502;2022-08-01T11:21:59;101740;;;26.6;54.5
6952;BME280;3515;50.138;8.502;2022-08-01T11:29:14;101750;;;26.6;54.0
6952;BME280;3515;50.138;8.502;2022-08-01T11:31:37;101740;;;26.7;54.0
6952;BME280;3515;50.138;8.502;2022-08-01T11:34:03;101740;;;26.9;54.0
6952;BME280;3515;50.138;8.502;2022-08-01T11:36:28;101720;;;27.0;53.5
6952;BME280;3515;50.138;8.502;2022-08-01T11:41:21;101740;;;26.8;53.0
6952;BME280;3515;50.138;8.502;2022-08-01T11:46:09;101730;;;27.0;53.0
6952;BME280;3515;50.138;8.502;2022-08-01T11:48:34;101720;;;27.4;52.0
6952;BME280;3515;50.138;8.502;2022-08-01T11:51:00;101740;;;27.6;51.5
6952;BME280;3515;50.138;8.502;2022-08-01T11:53:25;101740;;;27.8;52.0
6952;BME280;3515;50.138;8.502;2022-08-01T11:55:51;101720;;;27.3;52.5
6952;BME280;3515;50.138;8.502;2022-08-01T11:58:16;101720;;;27.1;52.5
6952;BME280;3515;50.138;8.502;2022-08-01T12:00:41;101760;;;27.1;52.0
6952;BME280;3515;50.138;8.502;2022-08-01T12:03:07;101730;;;26.9;52.0
6952;BME280;3515;50.138;8.502;2022-08-01T12:05:32;101730;;;26.9;52.0
6952;BME280;3515;50.138;8.502;2022-08-01T12:07:57;101720;;;27.2;52.0
6952;BME280;3515;50.138;8.502;2022-08-01T12:10:23;101710;;;27.4;51.5
6952;BME280;3515;50.138;8.502;2022-08-01T12:12:47;101710;;;27.1;52.0
6952;BME280;3515;50.138;8.502;2022-08-01T12:15:12;101740;;;27.0;52.5
6952;BME280;3515;50.138;8.502;2022-08-01T12:17:38;101730;;;26.9;52.5
6952;BME280;3515;50.138;8.502;2022-08-01T12:20:04;101720;;;27.0;52.5
6952;BME280;3515;50.138;8.502;2022-08-01T12:22:28;101720;;;26.8;53.0
6952;BME280;3515;50.138;8.502;2022-08-01T12:24:54;101720;;;26.6;52.5
6952;BME280;3515;50.138;8.502;2022-08-01T12:27:27;101720;;;26.6;52.5
6952;BME280;3515;50.138;8.502;2022-08-01T12:29:44;101720;;;26.8;52.5
6952;BME280;3515;50.138;8.502;2022-08-01T12:34:35;101730;;;27.1;51.5
6952;BME280;3515;50.138;8.502;2022-08-01T12:37:00;101730;;;27.1;52.0
6952;BME280;3515;50.138;8.502;2022-08-01T12:39:30;101740;;;27.0;51.5
6952;BME280;3515;50.138;8.502;2022-08-01T12:41:51;101720;;;26.8;52.0
6952;BME280;3515;50.138;8.502;2022-08-01T12:44:16;101710;;;26.6;52.4
6952;BME280;3515;50.138;8.502;2022-08-01T12:46:41;101720;;;26.6;52.0
6952;BME280;3515;50.138;8.502;2022-08-01T12:49:06;101700;;;26.6;52.5
6952;BME280;3515;50.138;8.502;2022-08-01T12:51:32;101730;;;26.7;52.0
6952;BME280;3515;50.138;8.502;2022-08-01T12:53:58;101710;;;26.8;52.5
6952;BME280;3515;50.138;8.502;2022-08-01T12:56:37;101710;;;26.7;51.5
6952;BME280;3515;50.138;8.502;2022-08-01T12:58:48;101700;;;26.9;52.0
6952;BME280;3515;50.138;8.502;2022-08-01T13:01:13;101720;;;27.0;51.0
6952;BME280;3515;50.138;8.502;2022-08-01T13:03:38;101700;;;26.9;51.0
6952;BME280;3515;50.138;8.502;2022-08-01T13:06:10;101720;;;27.2;50.5
6952;BME280;3515;50.138;8.502;2022-08-01T13:08:29;101730;;;27.1;50.5
6952;BME280;3515;50.138;8.502;2022-08-01T13:11:00;101720;;;27.1;50.5
6952;BME280;3515;50.138;8.502;2022-08-01T13:13:19;101710;;;27.1;50.5
6952;BME280;3515;50.138;8.502;2022-08-01T13:15:45;101720;;;27.1;51.0
6952;BME280;3515;50.138;8.502;2022-08-01T13:20:35;101740;;;26.8;52.0
6952;BME280;3515;50.138;8.502;2022-08-01T13:25:26;101730;;;26.9;51.5
6952;BME280;3515;50.138;8.502;2022-08-01T13:30:17;101740;;;26.8;51.5
6952;BME280;3515;50.138;8.502;2022-08-01T13:32:42;101740;;;26.8;51.5
6952;BME280;3515;50.138;8.502;2022-08-01T13:35:13;101750;;;26.8;52.0
6952;BME280;3515;50.138;8.502;2022-08-01T13:37:37;101730;;;26.9;51.5
6952;BME280;3515;50.138;8.502;2022-08-01T13:40:03;101730;;;26.8;51.5
6952;BME280;3515;50.138;8.502;2022-08-01T13:42:28;101730;;;26.8;52.0
6952;BME280;3515;50.138;8.502;2022-08-01T13:44:53;101740;;;26.8;51.5
6952;BME280;3515;50.138;8.502;2022-08-01T13:47:18;101720;;;26.6;52.0
6952;BME280;3515;50.138;8.502;2022-08-01T13:49:44;101730;;;26.5;52.9
6952;BME280;3515;50.138;8.502;2022-08-01T13:52:09;101730;;;26.3;54.4
6952;BME280;3515;50.138;8.502;2022-08-01T13:54:34;101740;;;26.2;56.4
6952;BME280;3515;50.138;8.502;2022-08-01T13:57:00;101730;;;25.9;56.9
6952;BME280;3515;50.138;8.502;2022-08-01T13:59:25;101740;;;25.6;57.8
6952;BME280;3515;50.138;8.502;2022-08-01T14:01:50;101740;;;25.4;60.2
6952;BME280;3515;50.138;8.502;2022-08-01T14:04:15;101760;;;25.0;61.1
6952;BME280;3515;50.138;8.502;2022-08-01T14:06:41;101710;;;24.9;61.2
6952;BME280;3515;50.138;8.502;2022-08-01T14:09:06;101730;;;25.0;60.8
6952;BME280;3515;50.138;8.502;2022-08-01T14:11:31;101750;;;25.1;60.9
6952;BME280;3515;50.138;8.502;2022-08-01T14:13:57;101750;;;25.1;59.9
6952;BME280;3515;50.138;8.502;2022-08-01T14:16:22;101750;;;25.1;60.9
6952;BME280;3515;50.138;8.502;2022-08-01T14:18:47;101730;;;25.2;60.9
6952;BME280;3515;50.138;8.502;2022-08-01T14:21:13;101720;;;25.2;59.9
6952;BME280;3515;50.138;8.502;2022-08-01T14:23:38;101730;;;25.2;58.9
6952;BME280;3515;50.138;8.502;2022-08-01T14:26:03;101740;;;25.3;58.9
6952;BME280;3515;50.138;8.502;2022-08-01T14:28:29;101740;;;25.3;59.4
6952;BME280;3515;50.138;8.502;2022-08-01T14:30:54;101710;;;25.4;59.4